Terminal Aerodrome Forecast
Issued by NWS

Home | Current Version | Previous Version | Text Only | Print | Product List | Glossary On
Versions: 1 2 3 4 5 6 7 8 9 10 11 12
000
FTUS45 KLKN 300520
TAFEKO
TAF
KEKO 300520Z 3006/0106 VRB06KT P6SM VCSH BKN080
     FM302000 19010KT P6SM SCT080 SCT250
     FM010100 20007KT P6SM VCSH BKN080 BKN150 BKN250=

USA.gov is the U.S. government's official web portal to all federal, state and local government web resources and services.